sensor_id;sensor_type;location;lat;lon;timestamp;temperature;humidity
73777;DHT22;62088;50.240;2.696;2022-11-20T00:01:21;7.90;84.40
73777;DHT22;62088;50.240;2.696;2022-11-20T00:03:51;7.90;84.40
73777;DHT22;62088;50.240;2.696;2022-11-20T00:06:20;7.90;84.50
73777;DHT22;62088;50.240;2.696;2022-11-20T00:08:47;7.90;84.60
73777;DHT22;62088;50.240;2.696;2022-11-20T00:11:19;7.90;84.60
73777;DHT22;62088;50.240;2.696;2022-11-20T00:13:48;7.90;84.60
73777;DHT22;62088;50.240;2.696;2022-11-20T00:16:18;7.90;84.60
73777;DHT22;62088;50.240;2.696;2022-11-20T00:18:46;7.90;84.60
73777;DHT22;62088;50.240;2.696;2022-11-20T00:21:24;7.90;84.60
73777;DHT22;62088;50.240;2.696;2022-11-20T00:23:54;7.90;84.70
73777;DHT22;62088;50.240;2.696;2022-11-20T00:26:23;7.90;84.70
73777;DHT22;62088;50.240;2.696;2022-11-20T00:28:55;7.90;84.70
73777;DHT22;62088;50.240;2.696;2022-11-20T00:31:23;7.90;84.80
73777;DHT22;62088;50.240;2.696;2022-11-20T00:33:50;7.90;84.80
73777;DHT22;62088;50.240;2.696;2022-11-20T00:36:22;7.90;84.80
73777;DHT22;62088;50.240;2.696;2022-11-20T00:38:54;7.90;84.90
73777;DHT22;62088;50.240;2.696;2022-11-20T00:41:22;7.90;84.90
73777;DHT22;62088;50.240;2.696;2022-11-20T00:43:51;7.90;85.00
73777;DHT22;62088;50.240;2.696;2022-11-20T00:46:23;8.00;85.00
73777;DHT22;62088;50.240;2.696;2022-11-20T00:48:50;8.00;84.90
73777;DHT22;62088;50.240;2.696;2022-11-20T00:51:20;8.00;85.00
73777;DHT22;62088;50.240;2.696;2022-11-20T00:53:47;8.00;85.00
73777;DHT22;62088;50.240;2.696;2022-11-20T00:56:16;8.00;85.00
73777;DHT22;62088;50.240;2.696;2022-11-20T00:58:45;8.00;85.00
73777;DHT22;62088;50.240;2.696;2022-11-20T01:01:18;8.00;85.00
73777;DHT22;62088;50.240;2.696;2022-11-20T01:03:49;8.00;85.00
73777;DHT22;62088;50.240;2.696;2022-11-20T01:06:17;8.00;85.00
73777;DHT22;62088;50.240;2.696;2022-11-20T01:08:46;8.00;85.00
73777;DHT22;62088;50.240;2.696;2022-11-20T01:11:17;8.00;85.00
73777;DHT22;62088;50.240;2.696;2022-11-20T01:13:46;8.00;85.00
73777;DHT22;62088;50.240;2.696;2022-11-20T01:16:16;8.00;85.10
73777;DHT22;62088;50.240;2.696;2022-11-20T01:18:45;8.00;85.10
73777;DHT22;62088;50.240;2.696;2022-11-20T01:21:27;8.00;85.10
73777;DHT22;62088;50.240;2.696;2022-11-20T01:23:55;8.00;85.10
73777;DHT22;62088;50.240;2.696;2022-11-20T01:26:25;8.00;85.20
73777;DHT22;62088;50.240;2.696;2022-11-20T01:28:53;8.00;85.20
73777;DHT22;62088;50.240;2.696;2022-11-20T01:31:31;8.00;85.20
73777;DHT22;62088;50.240;2.696;2022-11-20T01:34:01;8.00;85.30
73777;DHT22;62088;50.240;2.696;2022-11-20T01:36:30;8.00;85.30
73777;DHT22;62088;50.240;2.696;2022-11-20T01:39:00;8.00;85.30
73777;DHT22;62088;50.240;2.696;2022-11-20T01:41:30;8.00;85.30
73777;DHT22;62088;50.240;2.696;2022-11-20T01:44:18;8.00;85.40
73777;DHT22;62088;50.240;2.696;2022-11-20T01:47:02;8.10;85.40
73777;DHT22;62088;50.240;2.696;2022-11-20T01:49:40;8.10;85.30
73777;DHT22;62088;50.240;2.696;2022-11-20T01:52:22;8.00;85.30
73777;DHT22;62088;50.240;2.696;2022-11-20T01:54:59;8.00;85.20
73777;DHT22;62088;50.240;2.696;2022-11-20T01:57:29;8.00;85.20
73777;DHT22;62088;50.240;2.696;2022-11-20T02:00:03;8.00;85.10
73777;DHT22;62088;50.240;2.696;2022-11-20T02:02:40;8.00;85.00
73777;DHT22;62088;50.240;2.696;2022-11-20T02:05:27;8.00;84.90
73777;DHT22;62088;50.240;2.696;2022-11-20T02:07:57;8.00;84.70
73777;DHT22;62088;50.240;2.696;2022-11-20T02:10:25;7.90;84.70
73777;DHT22;62088;50.240;2.696;2022-11-20T02:12:53;7.90;84.60
73777;DHT22;62088;50.240;2.696;2022-11-20T02:15:39;7.90;84.50
73777;DHT22;62088;50.240;2.696;2022-11-20T02:18:07;7.90;84.40
73777;DHT22;62088;50.240;2.696;2022-11-20T02:20:34;7.90;84.40
73777;DHT22;62088;50.240;2.696;2022-11-20T02:23:12;7.80;84.30
73777;DHT22;62088;50.240;2.696;2022-11-20T02:25:40;7.80;84.20
73777;DHT22;62088;50.240;2.696;2022-11-20T02:28:08;7.80;84.20
73777;DHT22;62088;50.240;2.696;2022-11-20T02:30:36;7.70;84.10
73777;DHT22;62088;50.240;2.696;2022-11-20T02:33:03;7.70;84.10
73777;DHT22;62088;50.240;2.696;2022-11-20T02:38:00;7.60;84.10
73777;DHT22;62088;50.240;2.696;2022-11-20T02:40:28;7.50;84.10
73777;DHT22;62088;50.240;2.696;2022-11-20T02:42:56;7.50;84.20
73777;DHT22;62088;50.240;2.696;2022-11-20T02:45:23;7.40;84.20
73777;DHT22;62088;50.240;2.696;2022-11-20T02:47:51;7.40;84.30
73777;DHT22;62088;50.240;2.696;2022-11-20T02:50:18;7.40;84.30
73777;DHT22;62088;50.240;2.696;2022-11-20T02:52:45;7.40;84.30
73777;DHT22;62088;50.240;2.696;2022-11-20T02:55:12;7.40;84.40
73777;DHT22;62088;50.240;2.696;2022-11-20T02:57:39;7.40;84.40
73777;DHT22;62088;50.240;2.696;2022-11-20T03:00:07;7.40;84.40
73777;DHT22;62088;50.240;2.696;2022-11-20T03:02:34;7.40;84.40
73777;DHT22;62088;50.240;2.696;2022-11-20T03:05:02;7.30;84.50
73777;DHT22;62088;50.240;2.696;2022-11-20T03:07:29;7.40;84.60
73777;DHT22;62088;50.240;2.696;2022-11-20T03:09:56;7.30;84.70
73777;DHT22;62088;50.240;2.696;2022-11-20T03:12:23;7.30;84.80
73777;DHT22;62088;50.240;2.696;2022-11-20T03:14:50;7.30;84.80
73777;DHT22;62088;50.240;2.696;2022-11-20T03:17:19;7.30;84.90
73777;DHT22;62088;50.240;2.696;2022-11-20T03:19:46;7.30;85.00
73777;DHT22;62088;50.240;2.696;2022-11-20T03:22:13;7.40;85.00
73777;DHT22;62088;50.240;2.696;2022-11-20T03:24:40;7.30;85.00
73777;DHT22;62088;50.240;2.696;2022-11-20T03:27:07;7.40;85.10
73777;DHT22;62088;50.240;2.696;2022-11-20T03:29:35;7.40;85.10
73777;DHT22;62088;50.240;2.696;2022-11-20T03:32:02;7.40;85.10
73777;DHT22;62088;50.240;2.696;2022-11-20T03:34:29;7.40;85.20
73777;DHT22;62088;50.240;2.696;2022-11-20T03:36:56;7.40;85.20
73777;DHT22;62088;50.240;2.696;2022-11-20T03:39:23;7.40;85.30
73777;DHT22;62088;50.240;2.696;2022-11-20T03:41:50;7.40;85.30
73777;DHT22;62088;50.240;2.696;2022-11-20T03:44:17;7.40;85.40
73777;DHT22;62088;50.240;2.696;2022-11-20T03:46:47;7.40;85.40
73777;DHT22;62088;50.240;2.696;2022-11-20T03:49:14;7.40;85.40
73777;DHT22;62088;50.240;2.696;2022-11-20T03:51:41;7.40;85.50
73777;DHT22;62088;50.240;2.696;2022-11-20T03:54:08;7.40;85.50
73777;DHT22;62088;50.240;2.696;2022-11-20T03:56:38;7.40;85.60
73777;DHT22;62088;50.240;2.696;2022-11-20T03:59:06;7.40;85.60
73777;DHT22;62088;50.240;2.696;2022-11-20T04:01:34;7.40;85.70
73777;DHT22;62088;50.240;2.696;2022-11-20T04:04:03;7.50;85.70
73777;DHT22;62088;50.240;2.696;2022-11-20T04:06:34;7.40;85.70
73777;DHT22;62088;50.240;2.696;2022-11-20T04:09:02;7.50;85.70
73777;DHT22;62088;50.240;2.696;2022-11-20T04:11:31;7.50;85.80
73777;DHT22;62088;50.240;2.696;2022-11-20T04:14:00;7.50;85.70
73777;DHT22;62088;50.240;2.696;2022-11-20T04:16:32;7.50;85.70
73777;DHT22;62088;50.240;2.696;2022-11-20T04:19:01;7.50;85.80
73777;DHT22;62088;50.240;2.696;2022-11-20T04:21:29;7.50;85.70
73777;DHT22;62088;50.240;2.696;2022-11-20T04:23:56;7.50;85.70
73777;DHT22;62088;50.240;2.696;2022-11-20T04:26:25;7.60;85.70
73777;DHT22;62088;50.240;2.696;2022-11-20T04:28:52;7.60;85.70
73777;DHT22;62088;50.240;2.696;2022-11-20T04:31:28;7.60;85.70
73777;DHT22;62088;50.240;2.696;2022-11-20T04:33:58;7.50;85.60
73777;DHT22;62088;50.240;2.696;2022-11-20T04:36:27;7.50;85.70
73777;DHT22;62088;50.240;2.696;2022-11-20T04:38:59;7.50;85.60
73777;DHT22;62088;50.240;2.696;2022-11-20T04:41:29;7.50;85.60
73777;DHT22;62088;50.240;2.696;2022-11-20T04:43:58;7.50;85.60
73777;DHT22;62088;50.240;2.696;2022-11-20T04:46:37;7.50;85.60
73777;DHT22;62088;50.240;2.696;2022-11-20T04:49:04;7.50;85.50
73777;DHT22;62088;50.240;2.696;2022-11-20T04:51:32;7.50;85.50
73777;DHT22;62088;50.240;2.696;2022-11-20T04:53:59;7.50;85.50
73777;DHT22;62088;50.240;2.696;2022-11-20T04:56:26;7.50;85.40
73777;DHT22;62088;50.240;2.696;2022-11-20T04:58:54;7.50;85.40
73777;DHT22;62088;50.240;2.696;2022-11-20T05:01:22;7.50;85.40
73777;DHT22;62088;50.240;2.696;2022-11-20T05:03:50;7.50;85.40
73777;DHT22;62088;50.240;2.696;2022-11-20T05:06:19;7.40;85.40
73777;DHT22;62088;50.240;2.696;2022-11-20T05:08:46;7.40;85.40
73777;DHT22;62088;50.240;2.696;2022-11-20T05:11:19;7.40;85.30
73777;DHT22;62088;50.240;2.696;2022-11-20T05:13:47;7.40;85.30
73777;DHT22;62088;50.240;2.696;2022-11-20T05:16:19;7.40;85.20
73777;DHT22;62088;50.240;2.696;2022-11-20T05:18:47;7.40;85.20
73777;DHT22;62088;50.240;2.696;2022-11-20T05:21:15;7.40;85.20
73777;DHT22;62088;50.240;2.696;2022-11-20T05:23:43;7.30;85.20
73777;DHT22;62088;50.240;2.696;2022-11-20T05:26:16;7.30;85.20
73777;DHT22;62088;50.240;2.696;2022-11-20T05:28:43;7.30;85.10
73777;DHT22;62088;50.240;2.696;2022-11-20T05:31:13;7.30;85.20
73777;DHT22;62088;50.240;2.696;2022-11-20T05:33:41;7.20;85.10
73777;DHT22;62088;50.240;2.696;2022-11-20T05:36:09;7.20;85.10
73777;DHT22;62088;50.240;2.696;2022-11-20T05:38:36;7.20;85.10
73777;DHT22;62088;50.240;2.696;2022-11-20T05:41:14;7.20;85.10
73777;DHT22;62088;50.240;2.696;2022-11-20T05:43:43;7.20;85.10
73777;DHT22;62088;50.240;2.696;2022-11-20T05:46:12;7.10;85.00
73777;DHT22;62088;50.240;2.696;2022-11-20T05:48:41;7.10;85.00
73777;DHT22;62088;50.240;2.696;2022-11-20T05:51:12;7.10;85.00
73777;DHT22;62088;50.240;2.696;2022-11-20T05:53:39;7.10;85.10
73777;DHT22;62088;50.240;2.696;2022-11-20T05:56:16;7.10;85.10
73777;DHT22;62088;50.240;2.696;2022-11-20T05:58:44;7.10;85.00
73777;DHT22;62088;50.240;2.696;2022-11-20T06:01:19;7.10;85.00
73777;DHT22;62088;50.240;2.696;2022-11-20T06:03:48;7.10;85.00
73777;DHT22;62088;50.240;2.696;2022-11-20T06:06:18;7.10;85.00
73777;DHT22;62088;50.240;2.696;2022-11-20T06:08:45;7.10;85.10
73777;DHT22;62088;50.240;2.696;2022-11-20T06:11:13;7.00;85.10
73777;DHT22;62088;50.240;2.696;2022-11-20T06:13:41;7.00;85.10
73777;DHT22;62088;50.240;2.696;2022-11-20T06:16:10;7.00;85.10
73777;DHT22;62088;50.240;2.696;2022-11-20T06:18:38;7.00;85.10
73777;DHT22;62088;50.240;2.696;2022-11-20T06:21:08;7.00;85.10
73777;DHT22;62088;50.240;2.696;2022-11-20T06:23:36;7.00;85.10
73777;DHT22;62088;50.240;2.696;2022-11-20T06:26:11;7.00;85.10
73777;DHT22;62088;50.240;2.696;2022-11-20T06:28:39;7.00;85.10
73777;DHT22;62088;50.240;2.696;2022-11-20T06:31:07;7.00;85.10
73777;DHT22;62088;50.240;2.696;2022-11-20T06:33:34;7.00;85.00
73777;DHT22;62088;50.240;2.696;2022-11-20T06:36:01;7.00;85.00
73777;DHT22;62088;50.240;2.696;2022-11-20T06:38:36;7.00;84.90
73777;DHT22;62088;50.240;2.696;2022-11-20T06:41:04;6.90;84.90
73777;DHT22;62088;50.240;2.696;2022-11-20T06:43:31;6.90;84.90
73777;DHT22;62088;50.240;2.696;2022-11-20T06:45:59;6.90;84.90
73777;DHT22;62088;50.240;2.696;2022-11-20T06:48:27;6.90;84.90
73777;DHT22;62088;50.240;2.696;2022-11-20T06:50:55;6.90;84.90
73777;DHT22;62088;50.240;2.696;2022-11-20T06:53:24;6.90;84.80
73777;DHT22;62088;50.240;2.696;2022-11-20T06:55:51;6.90;84.80
73777;DHT22;62088;50.240;2.696;2022-11-20T06:58:19;6.90;84.80
73777;DHT22;62088;50.240;2.696;2022-11-20T07:00:46;6.90;84.80
73777;DHT22;62088;50.240;2.696;2022-11-20T07:03:13;6.90;84.70
73777;DHT22;62088;50.240;2.696;2022-11-20T07:05:40;6.90;84.70
73777;DHT22;62088;50.240;2.696;2022-11-20T07:08:09;6.80;84.70
73777;DHT22;62088;50.240;2.696;2022-11-20T07:10:36;6.80;84.80
73777;DHT22;62088;50.240;2.696;2022-11-20T07:13:03;6.80;84.80
73777;DHT22;62088;50.240;2.696;2022-11-20T07:15:30;6.80;84.80
73777;DHT22;62088;50.240;2.696;2022-11-20T07:18:00;6.80;84.80
73777;DHT22;62088;50.240;2.696;2022-11-20T07:20:28;6.80;84.80
73777;DHT22;62088;50.240;2.696;2022-11-20T07:22:56;6.80;84.80
73777;DHT22;62088;50.240;2.696;2022-11-20T07:25:25;6.80;84.80
73777;DHT22;62088;50.240;2.696;2022-11-20T07:27:52;6.80;84.90
73777;DHT22;62088;50.240;2.696;2022-11-20T07:30:19;6.80;84.90
73777;DHT22;62088;50.240;2.696;2022-11-20T07:32:47;6.80;84.90
73777;DHT22;62088;50.240;2.696;2022-11-20T07:35:14;6.80;84.80
73777;DHT22;62088;50.240;2.696;2022-11-20T07:37:41;6.80;84.80
73777;DHT22;62088;50.240;2.696;2022-11-20T07:40:08;6.80;84.80
73777;DHT22;62088;50.240;2.696;2022-11-20T07:42:36;6.80;84.80
73777;DHT22;62088;50.240;2.696;2022-11-20T07:45:03;6.80;84.80
73777;DHT22;62088;50.240;2.696;2022-11-20T07:47:35;6.80;84.70
73777;DHT22;62088;50.240;2.696;2022-11-20T07:50:03;6.80;84.70
73777;DHT22;62088;50.240;2.696;2022-11-20T07:52:30;6.80;84.70
73777;DHT22;62088;50.240;2.696;2022-11-20T07:54:57;6.80;84.80
73777;DHT22;62088;50.240;2.696;2022-11-20T07:57:24;6.80;84.80
73777;DHT22;62088;50.240;2.696;2022-11-20T07:59:54;6.80;84.80
73777;DHT22;62088;50.240;2.696;2022-11-20T08:02:21;6.80;84.80
73777;DHT22;62088;50.240;2.696;2022-11-20T08:04:48;6.80;84.80
73777;DHT22;62088;50.240;2.696;2022-11-20T08:07:15;6.80;84.90
73777;DHT22;62088;50.240;2.696;2022-11-20T08:09:42;6.90;84.90
73777;DHT22;62088;50.240;2.696;2022-11-20T08:12:17;6.80;84.90
73777;DHT22;62088;50.240;2.696;2022-11-20T08:15:04;6.90;84.90
73777;DHT22;62088;50.240;2.696;2022-11-20T08:17:38;6.90;84.90
73777;DHT22;62088;50.240;2.696;2022-11-20T08:20:06;6.90;84.90
73777;DHT22;62088;50.240;2.696;2022-11-20T08:22:33;6.90;84.90
73777;DHT22;62088;50.240;2.696;2022-11-20T08:25:00;6.90;84.90
73777;DHT22;62088;50.240;2.696;2022-11-20T08:27:27;6.90;84.90
73777;DHT22;62088;50.240;2.696;2022-11-20T08:29:54;6.90;84.90
73777;DHT22;62088;50.240;2.696;2022-11-20T08:32:21;6.90;84.90
73777;DHT22;62088;50.240;2.696;2022-11-20T08:34:48;6.90;84.90
73777;DHT22;62088;50.240;2.696;2022-11-20T08:37:15;6.90;85.00
73777;DHT22;62088;50.240;2.696;2022-11-20T08:39:42;7.00;85.00
73777;DHT22;62088;50.240;2.696;2022-11-20T08:42:09;7.00;85.00
73777;DHT22;62088;50.240;2.696;2022-11-20T08:44:36;7.00;84.90
73777;DHT22;62088;50.240;2.696;2022-11-20T08:47:03;7.10;84.90
73777;DHT22;62088;50.240;2.696;2022-11-20T08:49:30;7.10;84.90
73777;DHT22;62088;50.240;2.696;2022-11-20T08:51:57;7.10;84.90
73777;DHT22;62088;50.240;2.696;2022-11-20T08:54:24;7.20;84.80
73777;DHT22;62088;50.240;2.696;2022-11-20T08:56:51;7.20;84.80
73777;DHT22;62088;50.240;2.696;2022-11-20T08:59:18;7.20;84.70
73777;DHT22;62088;50.240;2.696;2022-11-20T09:02:05;7.20;84.70
73777;DHT22;62088;50.240;2.696;2022-11-20T09:04:32;7.30;84.60
73777;DHT22;62088;50.240;2.696;2022-11-20T09:07:00;7.30;84.40
73777;DHT22;62088;50.240;2.696;2022-11-20T09:09:27;7.30;84.40
73777;DHT22;62088;50.240;2.696;2022-11-20T09:11:54;7.40;84.40
73777;DHT22;62088;50.240;2.696;2022-11-20T09:14:21;7.40;84.30
73777;DHT22;62088;50.240;2.696;2022-11-20T09:16:51;7.40;84.30
73777;DHT22;62088;50.240;2.696;2022-11-20T09:19:18;7.40;84.30
73777;DHT22;62088;50.240;2.696;2022-11-20T09:22:05;7.40;84.30
73777;DHT22;62088;50.240;2.696;2022-11-20T09:24:32;7.50;84.20
73777;DHT22;62088;50.240;2.696;2022-11-20T09:27:02;7.50;84.10
73777;DHT22;62088;50.240;2.696;2022-11-20T09:29:29;7.50;84.00
73777;DHT22;62088;50.240;2.696;2022-11-20T09:31:56;7.50;84.00
73777;DHT22;62088;50.240;2.696;2022-11-20T09:34:23;7.60;83.80
73777;DHT22;62088;50.240;2.696;2022-11-20T09:36:50;7.60;83.80
73777;DHT22;62088;50.240;2.696;2022-11-20T09:39:17;7.60;83.80
73777;DHT22;62088;50.240;2.696;2022-11-20T09:42:05;7.60;83.80
73777;DHT22;62088;50.240;2.696;2022-11-20T09:50:31;7.70;83.80
73777;DHT22;62088;50.240;2.696;2022-11-20T09:56:04;7.60;83.90
73777;DHT22;62088;50.240;2.696;2022-11-20T09:58:47;7.60;84.10
73777;DHT22;62088;50.240;2.696;2022-11-20T10:01:24;7.60;84.20
73777;DHT22;62088;50.240;2.696;2022-11-20T10:04:19;7.60;84.30
73777;DHT22;62088;50.240;2.696;2022-11-20T10:09:56;7.60;84.50
73777;DHT22;62088;50.240;2.696;2022-11-20T10:15:00;7.60;84.80
73777;DHT22;62088;50.240;2.696;2022-11-20T10:20:43;7.60;85.10
73777;DHT22;62088;50.240;2.696;2022-11-20T10:29:32;7.70;85.70
73777;DHT22;62088;50.240;2.696;2022-11-20T10:32:04;7.70;85.90
73777;DHT22;62088;50.240;2.696;2022-11-20T10:34:49;7.70;86.10
73777;DHT22;62088;50.240;2.696;2022-11-20T10:37:28;7.70;86.20
73777;DHT22;62088;50.240;2.696;2022-11-20T10:40:05;7.80;86.30
73777;DHT22;62088;50.240;2.696;2022-11-20T10:42:43;7.80;86.40
73777;DHT22;62088;50.240;2.696;2022-11-20T10:45:31;7.80;86.50
73777;DHT22;62088;50.240;2.696;2022-11-20T10:50:48;7.80;86.40
73777;DHT22;62088;50.240;2.696;2022-11-20T10:53:30;7.80;86.40
73777;DHT22;62088;50.240;2.696;2022-11-20T10:56:05;7.80;86.40
73777;DHT22;62088;50.240;2.696;2022-11-20T10:58:54;7.80;86.40
73777;DHT22;62088;50.240;2.696;2022-11-20T11:01:25;7.70;86.40
73777;DHT22;62088;50.240;2.696;2022-11-20T11:03:55;7.80;86.40
73777;DHT22;62088;50.240;2.696;2022-11-20T11:06:36;7.80;86.50
73777;DHT22;62088;50.240;2.696;2022-11-20T11:09:11;7.80;86.50
73777;DHT22;62088;50.240;2.696;2022-11-20T11:11:40;7.80;86.60
73777;DHT22;62088;50.240;2.696;2022-11-20T11:14:09;7.80;86.60
73777;DHT22;62088;50.240;2.696;2022-11-20T11:16:52;7.80;86.70
73777;DHT22;62088;50.240;2.696;2022-11-20T11:19:20;7.80;86.70
73777;DHT22;62088;50.240;2.696;2022-11-20T11:21:50;7.80;86.70
73777;DHT22;62088;50.240;2.696;2022-11-20T11:24:26;7.80;86.80
73777;DHT22;62088;50.240;2.696;2022-11-20T11:27:13;7.80;86.80
73777;DHT22;62088;50.240;2.696;2022-11-20T11:29:44;7.80;86.90
73777;DHT22;62088;50.240;2.696;2022-11-20T11:34:41;7.90;87.00
73777;DHT22;62088;50.240;2.696;2022-11-20T11:37:20;7.90;87.10
73777;DHT22;62088;50.240;2.696;2022-11-20T11:39:51;7.90;87.10
73777;DHT22;62088;50.240;2.696;2022-11-20T11:42:52;7.90;87.20
73777;DHT22;62088;50.240;2.696;2022-11-20T11:45:21;8.00;87.30
73777;DHT22;62088;50.240;2.696;2022-11-20T11:47:48;8.00;87.40
73777;DHT22;62088;50.240;2.696;2022-11-20T11:53:17;8.10;87.40
73777;DHT22;62088;50.240;2.696;2022-11-20T11:58:34;8.20;87.40
73777;DHT22;62088;50.240;2.696;2022-11-20T12:01:24;8.20;87.50
73777;DHT22;62088;50.240;2.696;2022-11-20T12:07:01;8.20;87.40
73777;DHT22;62088;50.240;2.696;2022-11-20T12:09:53;8.20;87.40
73777;DHT22;62088;50.240;2.696;2022-11-20T12:12:36;8.20;87.40
73777;DHT22;62088;50.240;2.696;2022-11-20T12:15:06;8.30;87.40
73777;DHT22;62088;50.240;2.696;2022-11-20T12:17:37;8.30;87.50
73777;DHT22;62088;50.240;2.696;2022-11-20T12:20:15;8.30;87.40
73777;DHT22;62088;50.240;2.696;2022-11-20T12:23:09;8.30;87.50
73777;DHT22;62088;50.240;2.696;2022-11-20T12:25:45;8.40;87.50
73777;DHT22;62088;50.240;2.696;2022-11-20T12:31:08;8.40;87.50
73777;DHT22;62088;50.240;2.696;2022-11-20T12:42:29;8.50;87.60
73777;DHT22;62088;50.240;2.696;2022-11-20T12:51:34;8.60;87.60
73777;DHT22;62088;50.240;2.696;2022-11-20T12:54:05;8.70;87.50
73777;DHT22;62088;50.240;2.696;2022-11-20T13:02:25;8.70;87.60
73777;DHT22;62088;50.240;2.696;2022-11-20T13:07:40;8.80;87.70
73777;DHT22;62088;50.240;2.696;2022-11-20T13:12:58;8.90;87.80
73777;DHT22;62088;50.240;2.696;2022-11-20T13:15:58;9.00;87.90
73777;DHT22;62088;50.240;2.696;2022-11-20T13:18:28;9.10;88.00
73777;DHT22;62088;50.240;2.696;2022-11-20T13:21:00;9.20;88.00
73777;DHT22;62088;50.240;2.696;2022-11-20T13:23:28;9.30;87.90
73777;DHT22;62088;50.240;2.696;2022-11-20T13:26:06;9.30;87.90
73777;DHT22;62088;50.240;2.696;2022-11-20T13:28:40;9.40;87.90
73777;DHT22;62088;50.240;2.696;2022-11-20T13:31:32;9.50;87.90
73777;DHT22;62088;50.240;2.696;2022-11-20T13:34:03;9.60;88.00
73777;DHT22;62088;50.240;2.696;2022-11-20T13:36:34;9.60;87.90
73777;DHT22;62088;50.240;2.696;2022-11-20T13:39:03;9.70;87.80
73777;DHT22;62088;50.240;2.696;2022-11-20T13:41:35;9.80;87.70
73777;DHT22;62088;50.240;2.696;2022-11-20T13:44:06;9.90;87.60
73777;DHT22;62088;50.240;2.696;2022-11-20T13:46:44;9.90;87.30
73777;DHT22;62088;50.240;2.696;2022-11-20T13:49:32;10.00;87.20
73777;DHT22;62088;50.240;2.696;2022-11-20T14:00:23;10.10;86.60
73777;DHT22;62088;50.240;2.696;2022-11-20T14:05:38;10.00;86.30
73777;DHT22;62088;50.240;2.696;2022-11-20T14:08:14;10.10;86.10
73777;DHT22;62088;50.240;2.696;2022-11-20T14:10:43;10.10;85.70
73777;DHT22;62088;50.240;2.696;2022-11-20T14:13:20;10.10;85.40
73777;DHT22;62088;50.240;2.696;2022-11-20T14:15:47;10.10;85.00
73777;DHT22;62088;50.240;2.696;2022-11-20T14:18:20;10.10;84.70
73777;DHT22;62088;50.240;2.696;2022-11-20T14:20:48;10.00;84.40
73777;DHT22;62088;50.240;2.696;2022-11-20T14:23:25;10.00;84.30
73777;DHT22;62088;50.240;2.696;2022-11-20T14:25:56;10.00;84.00
73777;DHT22;62088;50.240;2.696;2022-11-20T14:28:28;9.90;83.80
73777;DHT22;62088;50.240;2.696;2022-11-20T14:30:56;9.90;83.40
73777;DHT22;62088;50.240;2.696;2022-11-20T14:33:25;9.90;83.30
73777;DHT22;62088;50.240;2.696;2022-11-20T14:35:54;9.90;82.80
73777;DHT22;62088;50.240;2.696;2022-11-20T14:38:26;9.90;82.80
73777;DHT22;62088;50.240;2.696;2022-11-20T14:40:53;9.90;82.60
73777;DHT22;62088;50.240;2.696;2022-11-20T14:43:24;9.80;82.60
73777;DHT22;62088;50.240;2.696;2022-11-20T14:46:08;9.80;82.60
73777;DHT22;62088;50.240;2.696;2022-11-20T14:51:10;9.80;82.50
73777;DHT22;62088;50.240;2.696;2022-11-20T14:53:38;9.80;82.50
73777;DHT22;62088;50.240;2.696;2022-11-20T14:56:05;9.80;82.50
73777;DHT22;62088;50.240;2.696;2022-11-20T14:58:33;9.80;82.50
73777;DHT22;62088;50.240;2.696;2022-11-20T15:01:01;9.80;82.50
73777;DHT22;62088;50.240;2.696;2022-11-20T15:03:39;9.80;82.40
73777;DHT22;62088;50.240;2.696;2022-11-20T15:06:09;9.80;82.40
73777;DHT22;62088;50.240;2.696;2022-11-20T15:08:37;9.70;82.20
73777;DHT22;62088;50.240;2.696;2022-11-20T15:11:51;9.70;82.10
73777;DHT22;62088;50.240;2.696;2022-11-20T15:14:09;9.70;82.10
73777;DHT22;62088;50.240;2.696;2022-11-20T15:16:37;9.70;82.10
73777;DHT22;62088;50.240;2.696;2022-11-20T15:19:16;9.60;82.00
73777;DHT22;62088;50.240;2.696;2022-11-20T15:21:44;9.60;82.00
73777;DHT22;62088;50.240;2.696;2022-11-20T15:24:11;9.50;81.90
73777;DHT22;62088;50.240;2.696;2022-11-20T15:26:38;9.50;81.80
73777;DHT22;62088;50.240;2.696;2022-11-20T15:29:10;9.50;81.70
73777;DHT22;62088;50.240;2.696;2022-11-20T15:31:39;9.50;81.60
73777;DHT22;62088;50.240;2.696;2022-11-20T15:34:12;9.40;81.50
73777;DHT22;62088;50.240;2.696;2022-11-20T15:36:39;9.40;81.40
73777;DHT22;62088;50.240;2.696;2022-11-20T15:39:08;9.40;81.40
73777;DHT22;62088;50.240;2.696;2022-11-20T15:41:36;9.40;81.30
73777;DHT22;62088;50.240;2.696;2022-11-20T15:44:04;9.30;81.40
73777;DHT22;62088;50.240;2.696;2022-11-20T15:46:37;9.30;81.40
73777;DHT22;62088;50.240;2.696;2022-11-20T15:49:12;9.30;81.50
73777;DHT22;62088;50.240;2.696;2022-11-20T15:51:44;9.20;81.50
73777;DHT22;62088;50.240;2.696;2022-11-20T15:54:17;9.20;81.50
73777;DHT22;62088;50.240;2.696;2022-11-20T15:56:48;9.20;81.50
73777;DHT22;62088;50.240;2.696;2022-11-20T15:59:15;9.20;81.60
73777;DHT22;62088;50.240;2.696;2022-11-20T16:01:42;9.10;81.60
73777;DHT22;62088;50.240;2.696;2022-11-20T16:04:11;9.10;81.60
73777;DHT22;62088;50.240;2.696;2022-11-20T16:06:39;9.00;81.50
73777;DHT22;62088;50.240;2.696;2022-11-20T16:09:07;9.00;81.50
73777;DHT22;62088;50.240;2.696;2022-11-20T16:11:34;9.00;81.40
73777;DHT22;62088;50.240;2.696;2022-11-20T16:14:05;8.90;81.40
73777;DHT22;62088;50.240;2.696;2022-11-20T16:16:51;8.90;81.40
73777;DHT22;62088;50.240;2.696;2022-11-20T16:19:18;8.90;81.40
73777;DHT22;62088;50.240;2.696;2022-11-20T16:21:46;8.90;81.30
73777;DHT22;62088;50.240;2.696;2022-11-20T16:24:13;8.80;81.20
73777;DHT22;62088;50.240;2.696;2022-11-20T16:26:41;8.80;81.20
73777;DHT22;62088;50.240;2.696;2022-11-20T16:29:09;8.80;81.20
73777;DHT22;62088;50.240;2.696;2022-11-20T16:31:37;8.70;81.20
73777;DHT22;62088;50.240;2.696;2022-11-20T16:34:06;8.70;81.20
73777;DHT22;62088;50.240;2.696;2022-11-20T16:36:49;8.60;81.20
73777;DHT22;62088;50.240;2.696;2022-11-20T16:39:16;8.60;81.20
73777;DHT22;62088;50.240;2.696;2022-11-20T16:41:49;8.50;81.30
73777;DHT22;62088;50.240;2.696;2022-11-20T16:44:16;8.50;81.30
73777;DHT22;62088;50.240;2.696;2022-11-20T16:46:43;8.40;81.30
73777;DHT22;62088;50.240;2.696;2022-11-20T16:49:13;8.40;81.30
73777;DHT22;62088;50.240;2.696;2022-11-20T16:51:41;8.40;81.20
73777;DHT22;62088;50.240;2.696;2022-11-20T16:54:09;8.40;81.10
73777;DHT22;62088;50.240;2.696;2022-11-20T16:56:38;8.40;81.20
73777;DHT22;62088;50.240;2.696;2022-11-20T16:59:05;8.30;81.10
73777;DHT22;62088;50.240;2.696;2022-11-20T17:01:33;8.30;81.10
73777;DHT22;62088;50.240;2.696;2022-11-20T17:04:04;8.20;81.10
73777;DHT22;62088;50.240;2.696;2022-11-20T17:06:34;8.20;81.10
73777;DHT22;62088;50.240;2.696;2022-11-20T17:09:02;8.20;81.10
73777;DHT22;62088;50.240;2.696;2022-11-20T17:11:29;8.20;81.10
73777;DHT22;62088;50.240;2.696;2022-11-20T17:13:58;8.20;81.00
73777;DHT22;62088;50.240;2.696;2022-11-20T17:16:26;8.10;81.00
73777;DHT22;62088;50.240;2.696;2022-11-20T17:18:55;8.10;81.00
73777;DHT22;62088;50.240;2.696;2022-11-20T17:21:28;8.10;81.00
73777;DHT22;62088;50.240;2.696;2022-11-20T17:23:58;8.00;80.90
73777;DHT22;62088;50.240;2.696;2022-11-20T17:26:25;8.00;80.90
73777;DHT22;62088;50.240;2.696;2022-11-20T17:29:03;8.00;80.90
73777;DHT22;62088;50.240;2.696;2022-11-20T17:31:31;8.00;81.00